createdAt,value
2022-09-12T00:00:23.892Z,98677.53
2022-09-12T00:02:54.418Z,98682.84
2022-09-12T00:05:21.499Z,98680.19
2022-09-12T00:07:48.002Z,98672.22
2022-09-12T00:10:14.739Z,98675.69
2022-09-12T00:12:41.355Z,98672.22
2022-09-12T00:15:08.288Z,98666.88
2022-09-12T00:17:35.390Z,98665.53
2022-09-12T00:20:02.303Z,98665.53
2022-09-12T00:22:28.757Z,98665.53
2022-09-12T00:24:55.280Z,98655.94
2022-09-12T00:27:21.807Z,98657.78
2022-09-12T00:29:48.276Z,98650.59
2022-09-12T00:32:14.729Z,98646.34
2022-09-12T00:34:41.525Z,98648.19
2022-09-12T00:37:07.964Z,98647.38
2022-09-12T00:39:35.442Z,98646.56
2022-09-12T00:42:01.890Z,98650.28
2022-09-12T00:44:28.389Z,98646.56
2022-09-12T00:46:59.020Z,98650.28
2022-09-12T00:49:25.331Z,98638.84
2022-09-12T00:51:55.243Z,98644.97
2022-09-12T00:54:23.976Z,98633.28
2022-09-12T00:56:51.100Z,98629.81
2022-09-12T00:59:21.335Z,98637.78
2022-09-12T01:01:48.710Z,98636.72
2022-09-12T01:04:15.226Z,98638.59
2022-09-12T01:06:43.169Z,98634.31
2022-09-12T01:09:13.400Z,98626.34
2022-09-12T01:11:39.911Z,98629.81
2022-09-12T01:14:07.305Z,98628.47
2022-09-12T01:16:37.109Z,98627.63
2022-09-12T01:19:31.889Z,98624.97
2022-09-12T01:22:17.020Z,98622.31
2022-09-12T01:25:02.324Z,98621.50
2022-09-12T01:27:53.470Z,98620.72
2022-09-12T01:30:30.437Z,98618.56
2022-09-12T01:33:02.899Z,98620.97
2022-09-12T01:35:35.126Z,98619.38
2022-09-12T01:38:11.790Z,98620.16
2022-09-12T01:40:50.091Z,98614.03
2022-09-12T01:43:18.847Z,98614.03
2022-09-12T01:45:53.338Z,98614.03
2022-09-12T01:48:21.688Z,98612.41
2022-09-12T01:50:53.273Z,98612.41
2022-09-12T01:53:25.833Z,98622.03
2022-09-12T01:56:05.417Z,98614.03
2022-09-12T02:01:34.659Z,98606.06
2022-09-12T02:04:08.779Z,98600.13
2022-09-12T02:06:44.887Z,98598.88
2022-09-12T02:09:14.894Z,98602.59
2022-09-12T02:11:42.404Z,98598.53
2022-09-12T02:14:13.960Z,98600.41
2022-09-12T02:16:42.437Z,98596.94
2022-09-12T02:19:11.121Z,98595.88
2022-09-12T02:21:37.659Z,98587.66
2022-09-12T02:24:04.156Z,98588.16
2022-09-12T02:26:41.181Z,98590.00
2022-09-12T02:29:07.626Z,98584.69
2022-09-12T02:31:37.549Z,98590.81
2022-09-12T02:34:08.100Z,98590.81
2022-09-12T02:37:08.217Z,98590.25
2022-09-12T02:39:35.015Z,98594.53
2022-09-12T02:42:01.464Z,98584.19
2022-09-12T02:44:31.783Z,98586.38
2022-09-12T02:47:10.883Z,98577.34
2022-09-12T02:49:40.234Z,98577.91
2022-09-12T02:52:07.003Z,98580.31
2022-09-12T02:54:33.466Z,98585.63
2022-09-12T02:56:59.938Z,98578.72
2022-09-12T02:59:26.446Z,98577.38
2022-09-12T03:02:13.506Z,98576.59
2022-09-12T03:05:04.822Z,98571.53
2022-09-12T03:08:02.351Z,98576.59
2022-09-12T03:10:41.791Z,98580.56
2022-09-12T03:13:29.855Z,98577.06
2022-09-12T03:16:21.342Z,98577.06
2022-09-12T03:19:23.901Z,98578.72
2022-09-12T03:22:02.338Z,98581.31
2022-09-12T03:24:42.387Z,98569.53
2022-09-12T03:27:10.566Z,98568.72
2022-09-12T03:29:37.275Z,98571.63
2022-09-12T03:32:03.776Z,98579.84
2022-09-12T03:34:30.279Z,98574.53
2022-09-12T03:36:56.888Z,98573.75
2022-09-12T03:39:26.913Z,98569.47
2022-09-12T03:41:54.429Z,98572.13
2022-09-12T03:44:20.876Z,98567.84
2022-09-12T03:46:47.330Z,98569.72
2022-09-12T03:49:13.839Z,98566.81
2022-09-12T03:51:40.343Z,98578.25
2022-09-12T03:54:06.935Z,98569.72
2022-09-12T03:56:33.404Z,98567.84
2022-09-12T03:58:59.875Z,98570.50
2022-09-12T04:01:26.413Z,98572.38
2022-09-12T04:03:52.990Z,98568.91
2022-09-12T04:06:21.043Z,98567.31
2022-09-12T04:08:52.317Z,98575.53
2022-09-12T04:11:20.024Z,98567.56
2022-09-12T04:13:46.632Z,98571.03
2022-09-12T04:16:14.030Z,98573.13
2022-09-12T04:18:40.541Z,98571.25
2022-09-12T04:21:08.702Z,98569.44
2022-09-12T04:23:35.167Z,98574.19
2022-09-12T04:26:02.472Z,98565.94
2022-09-12T04:28:29.359Z,98575.22
2022-09-12T04:30:56.108Z,98564.59
2022-09-12T04:33:22.682Z,98570.72
2022-09-12T04:35:49.414Z,98572.84
2022-09-12T04:38:15.867Z,98574.44
2022-09-12T04:40:42.317Z,98567.50
2022-09-12T04:43:14.282Z,98569.13
2022-09-12T04:45:41.137Z,98570.97
2022-09-12T04:48:07.651Z,98572.84
2022-09-12T04:50:34.109Z,98582.41
2022-09-12T04:53:00.592Z,98574.44
2022-09-12T04:55:27.079Z,98576.28
2022-09-12T04:57:53.727Z,98582.09
2022-09-12T05:00:20.531Z,98578.94
2022-09-12T05:02:47.028Z,98579.75
2022-09-12T05:05:13.491Z,98586.94
2022-09-12T05:07:40.361Z,98579.69
2022-09-12T05:10:07.312Z,98584.50
2022-09-12T05:12:33.895Z,98586.34
2022-09-12T05:15:00.352Z,98585.56
2022-09-12T05:17:29.249Z,98577.03
2022-09-12T05:19:55.767Z,98581.03
2022-09-12T05:22:22.779Z,98577.84
2022-09-12T05:24:50.673Z,98576.78
2022-09-12T05:27:17.323Z,98578.63
2022-09-12T05:29:43.776Z,98580.25
2022-09-12T05:32:10.252Z,98576.78
2022-09-12T05:34:37.910Z,98577.31
2022-09-12T05:37:04.436Z,98581.84
2022-09-12T05:39:30.907Z,98578.16
2022-09-12T05:41:57.384Z,98574.66
2022-09-12T05:44:24.845Z,98577.91
2022-09-12T05:46:53.511Z,98580.28
2022-09-12T05:49:21.385Z,98583.53
2022-09-12T05:51:47.838Z,98581.16
2022-09-12T05:54:16.059Z,98582.78
2022-09-12T05:56:43.873Z,98587.34
2022-09-12T05:59:15.070Z,98587.44
2022-09-12T06:01:41.620Z,98592.81
2022-09-12T06:04:08.147Z,98587.81
2022-09-12T06:06:42.429Z,98589.41
2022-09-12T06:09:08.984Z,98581.47
2022-09-12T06:11:37.190Z,98589.00
2022-09-12T06:14:04.035Z,98583.91
2022-09-12T06:16:31.826Z,98581.25
2022-09-12T06:18:59.890Z,98580.44
2022-09-12T06:21:26.680Z,98577.28
2022-09-12T06:23:56.453Z,98580.81
2022-09-12T06:26:25.453Z,98569.91
2022-09-12T06:28:52.622Z,98578.97
2022-09-12T06:31:20.487Z,98567.28
2022-09-12T06:33:48.800Z,98571.03
2022-09-12T06:36:17.031Z,98570.53
2022-09-12T06:38:44.010Z,98574.84
2022-09-12T06:41:14.027Z,98571.44
2022-09-12T06:43:41.069Z,98570.69
2022-09-12T06:46:08.016Z,98574.78
2022-09-12T06:48:36.478Z,98569.28
2022-09-12T06:51:07.498Z,98573.00
2022-09-12T06:53:34.248Z,98572.75
2022-09-12T06:56:02.058Z,98568.59
2022-09-12T06:58:29.078Z,98574.75
2022-09-12T07:01:03.523Z,98571.50
2022-09-12T07:03:30.328Z,98573.34
2022-09-12T07:05:56.775Z,98570.78
2022-09-12T07:08:23.266Z,98581.28
2022-09-12T07:10:49.718Z,98580.44
2022-09-12T07:13:16.155Z,98574.13
2022-09-12T07:15:42.860Z,98575.06
2022-09-12T07:18:10.092Z,98571.97
2022-09-12T07:20:39.247Z,98568.16
2022-09-12T07:23:05.699Z,98576.84
2022-09-12T07:25:32.156Z,98573.25
2022-09-12T07:27:58.694Z,98572.66
2022-09-12T07:30:25.168Z,98571.63
2022-09-12T07:32:55.923Z,98573.25
2022-09-12T07:35:25.110Z,98563.91
2022-09-12T07:37:51.705Z,98569.22
2022-09-12T07:40:18.256Z,98564.84
2022-09-12T07:42:44.763Z,98561.25
2022-09-12T07:45:11.259Z,98563.38
2022-09-12T07:47:37.775Z,98552.91
2022-09-12T07:50:04.421Z,98565.28
2022-09-12T07:52:31.268Z,98561.00
2022-09-12T07:54:57.815Z,98567.72
2022-09-12T07:57:25.693Z,98556.72
2022-09-12T07:59:55.138Z,98560.97
2022-09-12T08:02:21.639Z,98570.13
2022-09-12T08:04:49.217Z,98571.22
2022-09-12T08:07:15.762Z,98577.03
2022-09-12T08:09:42.268Z,98576.72
2022-09-12T08:12:08.715Z,98570.41
2022-09-12T08:14:35.199Z,98568.38
2022-09-12T08:17:01.663Z,98578.03
2022-09-12T08:19:28.138Z,98574.84
2022-09-12T08:21:55.693Z,98571.47
2022-09-12T08:24:22.233Z,98565.47
2022-09-12T08:26:48.706Z,98567.38
2022-09-12T08:29:15.210Z,98564.91
2022-09-12T08:31:42.476Z,98580.06
2022-09-12T08:34:08.964Z,98568.06
2022-09-12T08:36:35.589Z,98563.47
2022-09-12T08:39:04.566Z,98567.31
2022-09-12T08:41:40.722Z,98569.44
2022-09-12T08:44:15.856Z,98566.94
2022-09-12T08:47:10.346Z,98568.22
2022-09-12T08:50:12.434Z,98567.59
2022-09-12T08:52:58.873Z,98572.47
2022-09-12T08:55:26.694Z,98565.03
2022-09-12T08:57:53.236Z,98571.16
2022-09-12T09:00:20.060Z,98570.91
2022-09-12T09:03:00.161Z,98568.25
2022-09-12T09:05:44.890Z,98567.19
2022-09-12T09:08:43.144Z,98571.75
2022-09-12T09:11:15.489Z,98574.94
2022-09-12T09:14:19.095Z,98573.88
2022-09-12T09:16:46.362Z,98574.94
2022-09-12T09:19:16.585Z,98569.84
2022-09-12T09:21:57.549Z,98571.97
2022-09-12T09:24:26.868Z,98575.75
2022-09-12T09:26:55.040Z,98571.44
2022-09-12T09:29:24.055Z,98574.63
2022-09-12T09:31:52.989Z,98574.94
2022-09-12T09:34:23.381Z,98575.97
2022-09-12T09:36:50.849Z,98571.72
2022-09-12T09:39:24.537Z,98574.38
2022-09-12T09:42:26.295Z,98565.91
2022-09-12T09:44:53.111Z,98573.13
2022-09-12T09:47:19.839Z,98567.53
2022-09-12T09:49:46.336Z,98561.94
2022-09-12T09:52:15.675Z,98560.91
2022-09-12T09:55:05.271Z,98556.09
2022-09-12T09:57:34.605Z,98563.00
2022-09-12T10:00:21.903Z,98560.16
2022-09-12T10:03:13.733Z,98551.91
2022-09-12T10:06:00.313Z,98552.72
2022-09-12T10:08:35.247Z,98545.25
2022-09-12T10:11:03.015Z,98547.66
2022-09-12T10:13:56.772Z,98550.34
2022-09-12T10:16:48.249Z,98543.97
2022-09-12T10:19:24.568Z,98539.94
2022-09-12T10:21:51.601Z,98540.50
2022-09-12T10:24:21.004Z,98537.88
2022-09-12T10:26:55.894Z,98539.72
2022-09-12T10:29:31.409Z,98534.38
2022-09-12T10:31:59.865Z,98538.66
2022-09-12T10:34:37.191Z,98536.56
2022-09-12T10:37:08.402Z,98536.78
2022-09-12T10:39:36.133Z,98525.63
2022-09-12T10:42:03.097Z,98531.44
2022-09-12T10:44:31.038Z,98526.38
2022-09-12T10:46:57.982Z,98528.03
2022-09-12T10:49:29.493Z,98526.41
2022-09-12T10:51:56.521Z,98526.41
2022-09-12T10:54:25.134Z,98521.91
2022-09-12T10:57:22.654Z,98530.94
2022-09-12T11:00:18.079Z,98518.13
2022-09-12T11:03:00.170Z,98521.16
2022-09-12T11:05:41.766Z,98514.06
2022-09-12T11:08:39.374Z,98509.66
2022-09-12T11:11:05.707Z,98504.31
2022-09-12T11:14:00.387Z,98506.16
2022-09-12T11:16:28.964Z,98507.66
2022-09-12T11:19:07.520Z,98511.16
2022-09-12T11:21:57.997Z,98508.50
2022-09-12T11:24:48.232Z,98509.22
2022-09-12T11:27:35.512Z,98506.09
2022-09-12T11:30:04.108Z,98503.19
2022-09-12T11:32:42.330Z,98499.81
2022-09-12T11:35:28.139Z,98502.97
2022-09-12T11:38:20.708Z,98497.69
2022-09-12T11:40:55.579Z,98497.41
2022-09-12T11:43:30.951Z,98485.16
2022-09-12T11:46:16.581Z,98481.66
2022-09-12T11:48:53.962Z,98482.50
2022-09-12T11:51:31.879Z,98490.22
2022-09-12T11:54:23.284Z,98487.28
2022-09-12T11:56:53.155Z,98485.16
2022-09-12T11:59:31.151Z,98485.66
2022-09-12T12:01:59.774Z,98477.09
2022-09-12T12:04:35.294Z,98479.38
2022-09-12T12:07:07.379Z,98471.88
2022-09-12T12:09:34.001Z,98478.81
2022-09-12T12:12:03.225Z,98474.53
2022-09-12T12:14:39.159Z,98473.28
2022-09-12T12:17:13.578Z,98480.06
2022-09-12T12:19:40.042Z,98476.13
2022-09-12T12:22:17.313Z,98470.03
2022-09-12T12:25:08.845Z,98471.91
2022-09-12T12:27:44.547Z,98471.66
2022-09-12T12:30:28.925Z,98465.00
2022-09-12T12:33:10.494Z,98457.00
2022-09-12T12:35:41.514Z,98465.56
2022-09-12T12:38:38.236Z,98459.16
2022-09-12T12:41:16.727Z,98451.47
2022-09-12T12:43:53.581Z,98451.19
2022-09-12T12:46:26.846Z,98448.06
2022-09-12T12:49:00.419Z,98445.13
2022-09-12T12:51:30.914Z,98450.44
2022-09-12T12:53:58.201Z,98446.22
2022-09-12T12:56:34.925Z,98441.97
2022-09-12T12:59:06.838Z,98435.06
2022-09-12T13:01:40.348Z,98424.38
2022-09-12T13:04:15.748Z,98424.91
2022-09-12T13:06:44.275Z,98425.19
2022-09-12T13:09:28.535Z,98426.28
2022-09-12T13:12:19.240Z,98424.13
2022-09-12T13:14:53.862Z,98418.00
2022-09-12T13:17:39.776Z,98416.44
2022-09-12T13:20:28.210Z,98408.94
2022-09-12T13:22:55.363Z,98415.88
2022-09-12T13:25:32.539Z,98408.16
2022-09-12T13:27:59.792Z,98398.28
2022-09-12T13:30:26.272Z,98410.53
2022-09-12T13:32:53.047Z,98398.28
2022-09-12T13:35:39.288Z,98395.59
2022-09-12T13:38:09.030Z,98386.81
2022-09-12T13:40:54.763Z,98389.22
2022-09-12T13:43:26.790Z,98383.34
2022-09-12T13:45:53.387Z,98380.44
2022-09-12T13:48:21.888Z,98381.28
2022-09-12T13:50:57.178Z,98365.22
2022-09-12T13:53:25.090Z,98371.63
2022-09-12T13:56:00.642Z,98363.09
2022-09-12T13:58:31.404Z,98357.00
2022-09-12T14:01:10.822Z,98350.88
2022-09-12T14:04:15.703Z,98350.03
2022-09-12T14:06:51.450Z,98351.09
2022-09-12T14:09:26.875Z,98352.69
2022-09-12T14:11:53.700Z,98352.69
2022-09-12T14:14:37.383Z,98348.13
2022-09-12T14:17:19.802Z,98354.03
2022-09-12T14:19:49.773Z,98346.84
2022-09-12T14:22:17.920Z,98352.47
2022-09-12T14:24:50.465Z,98344.19
2022-09-12T14:27:25.691Z,98339.66
2022-09-12T14:30:25.404Z,98335.03
2022-09-12T14:33:10.068Z,98336.69
2022-09-12T14:35:52.502Z,98331.13
2022-09-12T14:38:22.971Z,98329.50
2022-09-12T14:40:52.237Z,98325.50
2022-09-12T14:43:28.972Z,98325.22
2022-09-12T14:46:03.589Z,98324.16
2022-09-12T14:48:32.904Z,98321.25
2022-09-12T14:50:59.381Z,98324.66
2022-09-12T14:53:34.753Z,98314.00
2022-09-12T14:56:13.340Z,98318.50
2022-09-12T14:58:40.485Z,98315.03
2022-09-12T15:01:07.162Z,98315.31
2022-09-12T15:03:34.400Z,98312.38
2022-09-12T15:06:02.729Z,98312.38
2022-09-12T15:08:29.218Z,98312.63
2022-09-12T15:10:55.751Z,98315.81
2022-09-12T15:13:23.747Z,98306.50
2022-09-12T15:15:57.582Z,98308.63
2022-09-12T15:18:25.793Z,98305.16
2022-09-12T15:20:54.849Z,98307.28
2022-09-12T15:23:29.884Z,98302.78
2022-09-12T15:25:56.348Z,98297.97
2022-09-12T15:28:23.740Z,98293.44
2022-09-12T15:30:51.275Z,98294.50
2022-09-12T15:33:18.835Z,98286.25
2022-09-12T15:35:45.632Z,98291.81
2022-09-12T15:38:12.318Z,98289.41
2022-09-12T15:40:38.915Z,98285.13
2022-09-12T15:43:05.408Z,98283.81
2022-09-12T15:45:33.083Z,98279.25
2022-09-12T15:47:59.932Z,98277.94
2022-09-12T15:50:28.072Z,98286.16
2022-09-12T15:52:55.497Z,98278.44
2022-09-12T15:55:28.084Z,98278.94
2022-09-12T15:57:54.530Z,98279.25
2022-09-12T16:00:21.136Z,98275.00
2022-09-12T16:02:49.231Z,98272.09
2022-09-12T16:05:20.832Z,98276.91
2022-09-12T16:07:47.333Z,98272.63
2022-09-12T16:10:15.356Z,98277.44
2022-09-12T16:12:42.227Z,98271.84
2022-09-12T16:15:15.076Z,98267.34
2022-09-12T16:17:41.615Z,98261.72
2022-09-12T16:20:09.368Z,98257.19
2022-09-12T16:22:35.989Z,98260.66
2022-09-12T16:25:02.476Z,98251.34
2022-09-12T16:27:28.992Z,98250.56
2022-09-12T16:29:55.498Z,98244.16
2022-09-12T16:32:21.994Z,98248.97
2022-09-12T16:34:48.650Z,98239.41
2022-09-12T16:37:15.102Z,98235.91
2022-09-12T16:39:41.576Z,98238.06
2022-09-12T16:42:08.035Z,98236.19
2022-09-12T16:44:34.483Z,98229.00
2022-09-12T16:47:00.927Z,98230.59
2022-09-12T16:49:27.396Z,98222.06
2022-09-12T16:51:53.836Z,98235.38
2022-09-12T16:54:20.343Z,98227.41
2022-09-12T16:56:46.871Z,98223.94
2022-09-12T16:59:16.255Z,98225.00
2022-09-12T17:01:43.032Z,98219.91
2022-09-12T17:04:10.021Z,98218.06
2022-09-12T17:06:36.498Z,98213.78
2022-09-12T17:09:04.554Z,98214.06
2022-09-12T17:11:36.234Z,98206.06
2022-09-12T17:14:05.812Z,98210.59
2022-09-12T17:16:41.410Z,98217.00
2022-09-12T17:19:07.994Z,98212.72
2022-09-12T17:21:35.170Z,98213.25
2022-09-12T17:24:01.786Z,98218.59
2022-09-12T17:26:28.235Z,98210.84
2022-09-12T17:28:54.711Z,98209.53
2022-09-12T17:31:21.233Z,98202.63
2022-09-12T17:33:47.880Z,98205.78
2022-09-12T17:36:17.055Z,98205.50
2022-09-12T17:38:44.805Z,98200.19
2022-09-12T17:41:16.028Z,98188.22
2022-09-12T17:43:42.611Z,98198.88
2022-09-12T17:46:09.156Z,98191.13
2022-09-12T17:48:36.011Z,98193.00
2022-09-12T17:51:09.784Z,98186.06
2022-09-12T17:53:36.248Z,98189.81
2022-09-12T17:56:04.407Z,98187.66
2022-09-12T17:58:31.477Z,98190.06
2022-09-12T18:01:20.665Z,98194.56
2022-09-12T18:03:47.351Z,98197.50
2022-09-12T18:06:14.955Z,98192.19
2022-09-12T18:08:41.429Z,98191.66
2022-09-12T18:11:07.980Z,98191.91
2022-09-12T18:13:34.494Z,98187.91
2022-09-12T18:16:08.485Z,98192.44
2022-09-12T18:18:35.138Z,98191.66
2022-09-12T18:21:02.614Z,98197.22
2022-09-12T18:23:29.332Z,98186.53
2022-09-12T18:26:06.875Z,98186.53
2022-09-12T18:28:34.379Z,98189.47
2022-09-12T18:31:00.894Z,98187.09
2022-09-12T18:33:27.371Z,98190.56
2022-09-12T18:35:53.863Z,98189.75
2022-09-12T18:38:20.419Z,98187.34
2022-09-12T18:40:47.223Z,98185.44
2022-09-12T18:43:14.358Z,98187.09
2022-09-12T18:45:40.844Z,98187.09
2022-09-12T18:48:07.429Z,98184.94
2022-09-12T18:50:33.932Z,98179.91
2022-09-12T18:53:00.395Z,98182.00
2022-09-12T18:55:27.070Z,98180.16
2022-09-12T18:57:55.105Z,98186.53
2022-09-12T19:00:21.712Z,98184.94
2022-09-12T19:02:48.228Z,98181.47
2022-09-12T19:05:14.940Z,98185.22
2022-09-12T19:07:41.393Z,98184.94
2022-09-12T19:10:08.958Z,98178.03
2022-09-12T19:12:35.492Z,98163.13
2022-09-12T19:15:02.045Z,98170.56
2022-09-12T19:17:28.495Z,98165.78
2022-09-12T19:19:55.457Z,98172.16
2022-09-12T19:22:22.189Z,98165.22
2022-09-12T19:24:48.928Z,98163.38
2022-09-12T19:27:16.071Z,98159.38
2022-09-12T19:29:42.668Z,98159.09
2022-09-12T19:32:09.119Z,98148.72
2022-09-12T19:34:35.600Z,98151.41
2022-09-12T19:37:02.067Z,98139.97
2022-09-12T19:39:28.574Z,98145.28
2022-09-12T19:41:55.057Z,98142.34
2022-09-12T19:44:21.554Z,98139.97
2022-09-12T19:46:48.124Z,98142.84
2022-09-12T19:49:14.659Z,98136.75
2022-09-12T19:51:41.516Z,98138.06
2022-09-12T19:54:08.095Z,98139.13
2022-09-12T19:56:34.620Z,98135.66
2022-09-12T19:59:01.078Z,98133.00
2022-09-12T20:01:30.643Z,98129.53
2022-09-12T20:03:57.810Z,98135.94
2022-09-12T20:06:25.902Z,98132.72
2022-09-12T20:08:52.344Z,98126.88
2022-09-12T20:11:20.339Z,98124.72
2022-09-12T20:13:46.886Z,98116.75
2022-09-12T20:16:22.647Z,98114.09
2022-09-12T20:18:53.592Z,98116.75
2022-09-12T20:21:20.819Z,98111.44
2022-09-12T20:23:47.266Z,98116.22
2022-09-12T20:26:13.751Z,98113.84
2022-09-12T20:28:40.669Z,98110.13
2022-09-12T20:31:08.951Z,98109.59
2022-09-12T20:33:35.470Z,98106.16
2022-09-12T20:36:09.425Z,98102.13
2022-09-12T20:38:36.042Z,98105.88
2022-09-12T20:41:03.031Z,98100.25
2022-09-12T20:43:29.479Z,98105.56
2022-09-12T20:45:55.974Z,98107.44
2022-09-12T20:48:22.458Z,98109.31
2022-09-12T20:50:48.936Z,98099.16
2022-09-12T20:53:15.391Z,98092.78
2022-09-12T20:55:49.326Z,98081.31
2022-09-12T20:58:15.788Z,98079.25
2022-09-12T21:00:42.227Z,98072.53
2022-09-12T21:03:08.733Z,98066.19
2022-09-12T21:05:35.186Z,98066.19
2022-09-12T21:08:01.743Z,98056.59
2022-09-12T21:10:28.204Z,98059.50
2022-09-12T21:12:54.678Z,98059.50
2022-09-12T21:15:21.168Z,98069.34
2022-09-12T21:17:47.606Z,98060.03
2022-09-12T21:20:14.117Z,98064.03
2022-09-12T21:22:40.605Z,98057.66
2022-09-12T21:25:07.436Z,98056.59
2022-09-12T21:27:33.891Z,98048.34
2022-09-12T21:30:03.205Z,98052.09
2022-09-12T21:32:34.578Z,98048.13
2022-09-12T21:35:01.847Z,98053.16
2022-09-12T21:37:28.327Z,98049.72
2022-09-12T21:39:54.823Z,98042.78
2022-09-12T21:42:21.326Z,98034.00
2022-09-12T21:44:47.872Z,98032.41
2022-09-12T21:47:14.319Z,98017.47
2022-09-12T21:49:40.767Z,98022.78
2022-09-12T21:52:07.282Z,98017.75
2022-09-12T21:54:36.818Z,98023.88
2022-09-12T21:57:03.307Z,98026.00
2022-09-12T21:59:29.752Z,98026.78
2022-09-12T22:01:56.314Z,98015.34
2022-09-12T22:04:22.779Z,98010.03
2022-09-12T22:06:49.231Z,98015.34
2022-09-12T22:09:16.880Z,98016.16
2022-09-12T22:11:44.049Z,98015.34
2022-09-12T22:14:10.888Z,98013.72
2022-09-12T22:16:37.407Z,98011.91
2022-09-12T22:19:03.888Z,98010.28
2022-09-12T22:21:30.346Z,97997.78
2022-09-12T22:24:15.148Z,97999.13
2022-09-12T22:26:42.608Z,98002.56
2022-09-12T22:29:13.219Z,98003.38
2022-09-12T22:31:39.934Z,97998.31
2022-09-12T22:34:06.542Z,97997.25
2022-09-12T22:36:36.997Z,98001.78
2022-09-12T22:39:05.986Z,98005.25
2022-09-12T22:41:32.430Z,98004.72
2022-09-12T22:43:59.354Z,98005.75
2022-09-12T22:46:26.233Z,98008.41
2022-09-12T22:48:52.844Z,98007.63
2022-09-12T22:51:19.372Z,97999.13
2022-09-12T22:53:46.662Z,97999.13
2022-09-12T22:56:13.119Z,97993.00
2022-09-12T22:58:41.308Z,98004.97
2022-09-12T23:01:07.943Z,97995.38
2022-09-12T23:03:35.030Z,97996.47
2022-09-12T23:06:01.843Z,97995.91
2022-09-12T23:08:29.558Z,97990.84
2022-09-12T23:11:03.619Z,97988.19
2022-09-12T23:13:30.943Z,97982.09
2022-09-12T23:15:59.167Z,97977.56
2022-09-12T23:18:25.910Z,97973.81
2022-09-12T23:20:59.005Z,97963.97
2022-09-12T23:23:25.490Z,97966.91
2022-09-12T23:26:09.791Z,97961.31
2022-09-12T23:28:36.144Z,97969.06
2022-09-12T23:31:02.757Z,97967.47
2022-09-12T23:33:29.685Z,97960.28
2022-09-12T23:36:00.571Z,97953.34
2022-09-12T23:38:27.123Z,97957.88
2022-09-12T23:40:53.785Z,97965.84
2022-09-12T23:43:20.230Z,97973.03
2022-09-12T23:45:46.798Z,97964.25
2022-09-12T23:48:13.297Z,97964.25
2022-09-12T23:50:39.771Z,97957.34
2022-09-12T23:53:06.500Z,97955.47
2022-09-12T23:55:32.968Z,97957.06
2022-09-12T23:57:59.420Z,97962.41
